createdAt,value
2018-12-09T00:01:34.567Z,98.02
2018-12-09T00:04:03.059Z,98.07
2018-12-09T00:06:31.530Z,97.79
2018-12-09T00:09:00.068Z,97.86
2018-12-09T00:11:29.212Z,96.92
2018-12-09T00:13:57.663Z,96.80
2018-12-09T00:16:26.167Z,96.64
2018-12-09T00:18:55.498Z,97.04
2018-12-09T00:21:24.078Z,97.00
2018-12-09T00:23:52.560Z,96.62
2018-12-09T00:26:21.040Z,96.78
2018-12-09T00:28:49.544Z,97.12
2018-12-09T00:31:18.058Z,97.09
2018-12-09T00:33:46.731Z,96.99
2018-12-09T00:36:15.238Z,97.44
2018-12-09T00:38:43.795Z,96.28
2018-12-09T00:41:12.332Z,96.48
2018-12-09T00:43:40.855Z,96.96
2018-12-09T00:46:09.319Z,97.30
2018-12-09T00:48:37.800Z,97.46
2018-12-09T00:51:06.336Z,97.41
2018-12-09T00:53:34.963Z,96.75
2018-12-09T00:56:03.419Z,97.32
2018-12-09T00:58:31.891Z,97.83
2018-12-09T01:01:00.366Z,97.85
2018-12-09T01:03:29.754Z,97.87
2018-12-09T01:05:58.237Z,97.76
2018-12-09T01:08:27.610Z,97.75
2018-12-09T01:10:56.067Z,97.79
2018-12-09T01:13:24.892Z,98.27
2018-12-09T01:15:53.388Z,98.69
2018-12-09T01:18:21.940Z,98.48
2018-12-09T01:20:50.467Z,98.98
2018-12-09T01:23:18.952Z,98.71
2018-12-09T01:25:47.605Z,98.93
2018-12-09T01:28:16.113Z,98.73
2018-12-09T01:30:44.679Z,97.51
2018-12-09T01:33:13.175Z,97.15
2018-12-09T01:35:41.682Z,97.10
2018-12-09T01:38:10.256Z,97.30
2018-12-09T01:40:44.687Z,97.35
2018-12-09T01:43:13.170Z,97.43
2018-12-09T01:45:42.539Z,97.73
2018-12-09T01:48:11.597Z,98.41
2018-12-09T01:50:40.098Z,98.01
2018-12-09T01:53:19.727Z,98.30
2018-12-09T01:55:48.664Z,98.20
2018-12-09T01:58:17.204Z,98.16
2018-12-09T02:00:45.775Z,97.01
2018-12-09T02:03:14.672Z,96.25
2018-12-09T02:05:43.241Z,96.91
2018-12-09T02:08:18.260Z,95.99
2018-12-09T02:10:46.932Z,95.50
2018-12-09T02:13:15.685Z,93.61
2018-12-09T02:15:44.180Z,93.37
2018-12-09T02:18:14.116Z,93.91
2018-12-09T02:20:42.659Z,93.40
2018-12-09T02:23:11.531Z,93.15
2018-12-09T02:25:40.144Z,93.36
2018-12-09T02:28:08.603Z,92.91
2018-12-09T02:30:37.153Z,91.49
2018-12-09T02:33:05.919Z,91.50
2018-12-09T02:35:41.591Z,91.25
2018-12-09T02:38:10.107Z,92.43
2018-12-09T02:40:38.839Z,93.04
2018-12-09T02:43:07.376Z,93.40
2018-12-09T02:45:35.946Z,93.24
2018-12-09T02:48:05.160Z,92.98
2018-12-09T02:50:33.666Z,93.47
2018-12-09T02:53:03.510Z,92.97
2018-12-09T02:55:32.446Z,93.09
2018-12-09T02:58:01.112Z,93.19
2018-12-09T03:00:29.592Z,92.89
2018-12-09T03:02:58.666Z,92.57
2018-12-09T03:05:27.131Z,91.48
2018-12-09T03:07:55.729Z,91.96
2018-12-09T03:10:24.240Z,92.72
2018-12-09T03:12:52.749Z,92.92
2018-12-09T03:15:21.790Z,92.42
2018-12-09T03:17:50.746Z,93.22
2018-12-09T03:20:19.288Z,93.65
2018-12-09T03:22:47.769Z,93.20
2018-12-09T03:25:16.307Z,94.00
2018-12-09T03:27:44.949Z,94.10
2018-12-09T03:30:13.705Z,94.40
2018-12-09T03:32:42.233Z,94.84
2018-12-09T03:35:11.586Z,93.99
2018-12-09T03:37:43.039Z,93.72
2018-12-09T03:40:12.641Z,93.53
2018-12-09T03:42:41.164Z,92.77
2018-12-09T03:45:09.815Z,92.14
2018-12-09T03:47:38.406Z,92.40
2018-12-09T03:50:08.282Z,93.06
2018-12-09T03:52:37.412Z,93.25
2018-12-09T03:55:06.751Z,94.23
2018-12-09T03:57:35.308Z,94.17
2018-12-09T04:00:04.094Z,93.92
2018-12-09T04:02:32.927Z,94.52
2018-12-09T04:05:01.552Z,95.11
2018-12-09T04:07:30.016Z,94.79
2018-12-09T04:09:58.515Z,94.68
2018-12-09T04:12:27.011Z,94.29
2018-12-09T04:14:55.488Z,93.93
2018-12-09T04:17:23.961Z,93.57
2018-12-09T04:19:52.971Z,92.99
2018-12-09T04:22:22.155Z,93.39
2018-12-09T04:24:51.720Z,93.44
2018-12-09T04:27:20.375Z,93.50
2018-12-09T04:29:48.891Z,93.04
2018-12-09T04:32:17.864Z,93.05
2018-12-09T04:34:46.385Z,93.49
2018-12-09T04:37:15.558Z,93.84
2018-12-09T04:39:44.148Z,94.41
2018-12-09T04:42:12.647Z,93.69
2018-12-09T04:44:41.196Z,93.22
2018-12-09T04:47:09.891Z,93.75
2018-12-09T04:49:38.348Z,95.22
2018-12-09T04:52:06.872Z,96.22
2018-12-09T04:54:35.600Z,96.76
2018-12-09T04:57:04.724Z,97.61
2018-12-09T04:59:35.737Z,97.35
2018-12-09T05:02:04.304Z,98.18
2018-12-09T05:04:32.839Z,96.77
2018-12-09T05:07:02.263Z,97.58
2018-12-09T05:09:30.732Z,98.13
2018-12-09T05:11:59.220Z,98.23
2018-12-09T05:14:27.785Z,97.68
2018-12-09T05:16:56.248Z,97.18
2018-12-09T05:19:24.772Z,96.95
2018-12-09T05:21:54.324Z,96.56
2018-12-09T05:24:22.932Z,96.66
2018-12-09T05:26:51.463Z,96.47
2018-12-09T05:29:20.012Z,96.77
2018-12-09T05:31:48.531Z,96.75
2018-12-09T05:34:23.520Z,97.02
2018-12-09T05:36:53.016Z,97.16
2018-12-09T05:39:22.083Z,97.40
2018-12-09T05:41:50.669Z,97.69
2018-12-09T05:44:19.666Z,98.18
2018-12-09T05:46:48.127Z,97.53
2018-12-09T05:49:16.676Z,96.75
2018-12-09T05:51:45.175Z,97.31
2018-12-09T05:54:14.450Z,97.81
2018-12-09T05:56:43.759Z,97.69
2018-12-09T05:59:12.479Z,97.85
2018-12-09T06:01:40.948Z,98.35
2018-12-09T06:04:09.507Z,98.31
2018-12-09T06:06:38.062Z,97.98
2018-12-09T06:09:06.917Z,97.49
2018-12-09T06:11:36.405Z,97.47
2018-12-09T06:14:04.964Z,97.18
2018-12-09T06:16:33.462Z,96.92
2018-12-09T06:19:02.360Z,96.75
2018-12-09T06:21:31.018Z,96.72
2018-12-09T06:24:00.232Z,96.29
2018-12-09T06:26:28.901Z,96.12
2018-12-09T06:28:58.052Z,95.59
2018-12-09T06:31:27.115Z,96.67
2018-12-09T06:33:55.653Z,95.84
2018-12-09T06:36:24.117Z,96.95
2018-12-09T06:38:52.609Z,97.83
2018-12-09T06:41:21.705Z,98.95
2018-12-09T06:43:50.193Z,99.23
2018-12-09T06:46:18.688Z,99.97
2018-12-09T06:48:47.187Z,100.00
2018-12-09T06:51:15.657Z,100.00
2018-12-09T06:53:44.291Z,100.00
2018-12-09T06:56:13.097Z,100.00
2018-12-09T06:58:41.559Z,100.00
2018-12-09T07:01:10.068Z,100.00
2018-12-09T07:03:39.206Z,100.00
2018-12-09T07:06:07.755Z,100.00
2018-12-09T07:08:36.255Z,100.00
2018-12-09T07:11:04.764Z,100.00
2018-12-09T07:13:33.256Z,100.00
2018-12-09T07:16:01.933Z,100.00
2018-12-09T07:18:30.440Z,100.00
2018-12-09T07:20:58.915Z,100.00
2018-12-09T07:23:27.567Z,100.00
2018-12-09T07:25:56.193Z,100.00
2018-12-09T07:28:24.688Z,100.00
2018-12-09T07:30:53.296Z,100.00
2018-12-09T07:33:21.817Z,100.00
2018-12-09T07:35:50.865Z,100.00
2018-12-09T07:38:19.338Z,100.00
2018-12-09T07:40:47.824Z,100.00
2018-12-09T07:43:17.598Z,100.00
2018-12-09T07:45:46.172Z,100.00
2018-12-09T07:48:14.721Z,100.00
2018-12-09T07:50:43.273Z,100.00
2018-12-09T07:53:11.860Z,100.00
2018-12-09T07:55:41.705Z,100.00
2018-12-09T07:58:10.484Z,100.00
2018-12-09T08:00:39.347Z,100.00
2018-12-09T08:03:07.947Z,100.00
2018-12-09T08:05:36.671Z,100.00
2018-12-09T08:08:05.724Z,100.00
2018-12-09T08:10:35.389Z,100.00
2018-12-09T08:13:04.763Z,100.00
2018-12-09T08:15:33.819Z,100.00
2018-12-09T08:18:02.340Z,100.00
2018-12-09T08:20:30.963Z,100.00
2018-12-09T08:22:59.499Z,100.00
2018-12-09T08:25:27.957Z,100.00
2018-12-09T08:27:56.628Z,100.00
2018-12-09T08:30:25.221Z,100.00
2018-12-09T08:32:53.793Z,100.00
2018-12-09T08:35:22.341Z,100.00
2018-12-09T08:37:51.053Z,100.00
2018-12-09T08:40:19.762Z,100.00
2018-12-09T08:42:48.235Z,100.00
2018-12-09T08:45:16.928Z,100.00
2018-12-09T08:47:45.539Z,100.00
2018-12-09T08:50:14.302Z,100.00
2018-12-09T08:52:43.635Z,100.00
2018-12-09T08:55:12.263Z,100.00
2018-12-09T08:57:41.501Z,100.00
2018-12-09T09:00:10.616Z,99.98
2018-12-09T09:02:39.084Z,100.00
2018-12-09T09:05:08.535Z,100.00
2018-12-09T09:07:37.027Z,99.75
2018-12-09T09:10:06.259Z,99.89
2018-12-09T09:12:35.032Z,99.69
2018-12-09T09:15:03.497Z,99.81
2018-12-09T09:17:31.976Z,99.81
2018-12-09T09:20:00.552Z,99.69
2018-12-09T09:22:29.037Z,99.34
2018-12-09T09:24:57.516Z,98.84
2018-12-09T09:27:26.171Z,98.60
2018-12-09T09:29:54.640Z,98.09
2018-12-09T09:32:23.161Z,97.53
2018-12-09T09:34:51.616Z,98.44
2018-12-09T09:37:20.744Z,98.16
2018-12-09T09:39:50.031Z,98.76
2018-12-09T09:42:18.534Z,98.97
2018-12-09T09:44:47.369Z,98.68
2018-12-09T09:47:15.845Z,98.63
2018-12-09T09:49:44.372Z,98.88
2018-12-09T09:52:12.952Z,99.32
2018-12-09T09:54:41.461Z,98.75
2018-12-09T09:57:09.966Z,99.10
2018-12-09T09:59:38.489Z,98.43
2018-12-09T10:02:07.020Z,98.18
2018-12-09T10:04:35.608Z,97.73
2018-12-09T10:07:04.157Z,97.62
2018-12-09T10:09:33.127Z,98.18
2018-12-09T10:12:01.827Z,98.04
2018-12-09T10:14:30.719Z,98.15
2018-12-09T10:17:00.039Z,98.06
2018-12-09T10:19:28.562Z,98.00
2018-12-09T10:21:57.120Z,98.17
2018-12-09T10:24:25.633Z,97.61
2018-12-09T10:26:54.120Z,97.80
2018-12-09T10:29:22.736Z,97.77
2018-12-09T10:31:51.269Z,97.86
2018-12-09T10:34:19.755Z,97.62
2018-12-09T10:36:48.242Z,97.58
2018-12-09T10:39:17.435Z,97.68
2018-12-09T10:41:46.022Z,97.78
2018-12-09T10:44:14.553Z,97.50
2018-12-09T10:46:43.105Z,96.91
2018-12-09T10:49:11.579Z,96.02
2018-12-09T10:51:40.064Z,96.00
2018-12-09T10:54:08.634Z,95.24
2018-12-09T10:56:37.116Z,94.80
2018-12-09T10:59:05.600Z,95.16
2018-12-09T11:01:46.279Z,94.22
2018-12-09T11:04:14.808Z,93.20
2018-12-09T11:06:43.311Z,92.49
2018-12-09T11:09:12.493Z,91.64
2018-12-09T11:11:41.026Z,91.85
2018-12-09T11:14:09.551Z,92.42
2018-12-09T11:16:38.019Z,93.13
2018-12-09T11:19:06.563Z,93.77
2018-12-09T11:21:35.100Z,93.69
2018-12-09T11:24:03.556Z,93.54
2018-12-09T11:26:32.410Z,93.10
2018-12-09T11:29:01.234Z,91.65
2018-12-09T11:31:29.819Z,90.80
2018-12-09T11:33:59.099Z,89.74
2018-12-09T11:36:27.634Z,89.53
2018-12-09T11:38:56.232Z,89.91
2018-12-09T11:41:24.762Z,89.91
2018-12-09T11:43:53.784Z,89.31
2018-12-09T11:46:22.375Z,89.73
2018-12-09T11:48:50.900Z,89.42
2018-12-09T11:51:20.248Z,89.72
2018-12-09T11:53:49.263Z,90.53
2018-12-09T11:56:19.001Z,90.65
2018-12-09T11:58:47.625Z,89.77
2018-12-09T12:01:16.165Z,89.59
2018-12-09T12:03:44.685Z,89.09
2018-12-09T12:06:13.194Z,89.51
2018-12-09T12:08:41.783Z,89.95
2018-12-09T12:11:10.247Z,88.76
2018-12-09T12:13:38.737Z,89.15
2018-12-09T12:16:07.197Z,89.09
2018-12-09T12:18:36.483Z,88.70
2018-12-09T12:21:05.327Z,88.79
2018-12-09T12:23:33.788Z,89.00
2018-12-09T12:26:02.595Z,88.22
2018-12-09T12:28:31.432Z,88.83
2018-12-09T12:31:00.081Z,87.23
2018-12-09T12:33:28.565Z,87.56
2018-12-09T12:35:57.034Z,86.54
2018-12-09T12:38:26.243Z,86.34
2018-12-09T12:40:54.719Z,86.32
2018-12-09T12:43:23.329Z,85.53
2018-12-09T12:45:51.969Z,83.87
2018-12-09T12:48:20.483Z,85.23
2018-12-09T12:50:49.080Z,84.43
2018-12-09T12:53:17.591Z,85.79
2018-12-09T12:55:46.440Z,85.42
2018-12-09T12:58:15.103Z,83.76
2018-12-09T13:00:43.590Z,83.42
2018-12-09T13:03:12.209Z,82.78
2018-12-09T13:05:40.703Z,84.16
2018-12-09T13:08:10.113Z,82.98
2018-12-09T13:10:38.733Z,83.38
2018-12-09T13:13:07.185Z,83.88
2018-12-09T13:15:35.675Z,82.17
2018-12-09T13:18:04.178Z,81.56
2018-12-09T13:20:32.858Z,81.22
2018-12-09T13:23:01.350Z,82.64
2018-12-09T13:25:29.860Z,83.82
2018-12-09T13:27:58.441Z,85.27
2018-12-09T13:30:27.137Z,88.16
2018-12-09T13:32:55.975Z,87.85
2018-12-09T13:35:24.641Z,88.73
2018-12-09T13:37:54.555Z,88.71
2018-12-09T13:40:24.403Z,88.81
2018-12-09T13:42:52.996Z,89.90
2018-12-09T13:45:22.035Z,91.06
2018-12-09T13:47:50.911Z,90.78
2018-12-09T13:50:19.545Z,91.29
2018-12-09T13:52:48.089Z,90.47
2018-12-09T13:55:16.751Z,90.13
2018-12-09T13:57:45.597Z,89.43
2018-12-09T14:00:18.333Z,88.66
2018-12-09T14:02:46.929Z,87.70
2018-12-09T14:05:15.728Z,88.66
2018-12-09T14:07:44.365Z,86.96
2018-12-09T14:10:13.554Z,86.59
2018-12-09T14:12:42.204Z,87.43
2018-12-09T14:15:11.040Z,88.14
2018-12-09T14:17:39.848Z,88.35
2018-12-09T14:20:09.866Z,88.27
2018-12-09T14:22:38.487Z,88.87
2018-12-09T14:25:08.011Z,89.31
2018-12-09T14:27:36.676Z,89.32
2018-12-09T14:30:06.533Z,89.97
2018-12-09T14:32:34.991Z,90.86
2018-12-09T14:35:04.591Z,90.31
2018-12-09T14:37:33.693Z,90.48
2018-12-09T14:40:02.491Z,90.90
2018-12-09T14:42:31.170Z,91.42
2018-12-09T14:44:59.736Z,90.29
2018-12-09T14:47:28.378Z,90.24
2018-12-09T14:49:57.365Z,90.76
2018-12-09T14:52:25.918Z,91.43
2018-12-09T14:54:54.428Z,92.18
2018-12-09T14:57:22.951Z,94.42
2018-12-09T14:59:51.442Z,95.31
2018-12-09T15:02:20.778Z,94.52
2018-12-09T15:04:49.367Z,95.18
2018-12-09T15:07:17.852Z,95.66
2018-12-09T15:09:47.206Z,96.10
2018-12-09T15:12:16.209Z,96.19
2018-12-09T15:14:44.696Z,96.31
2018-12-09T15:17:13.460Z,96.38
2018-12-09T15:19:42.892Z,96.01
2018-12-09T15:22:12.146Z,96.29
2018-12-09T15:24:41.527Z,96.86
2018-12-09T15:27:10.473Z,97.03
2018-12-09T15:29:39.619Z,97.40
2018-12-09T15:32:08.076Z,97.98
2018-12-09T15:34:36.609Z,98.53
2018-12-09T15:37:05.119Z,98.70
2018-12-09T15:39:33.689Z,99.04
2018-12-09T15:42:02.360Z,99.29
2018-12-09T15:44:31.841Z,99.53
2018-12-09T15:47:00.476Z,99.95
2018-12-09T15:49:29.093Z,100.00
2018-12-09T15:51:57.556Z,100.00
2018-12-09T15:54:26.650Z,100.00
2018-12-09T15:56:55.503Z,100.00
2018-12-09T15:59:31.833Z,100.00
2018-12-09T16:01:54.899Z,100.00
2018-12-09T16:04:23.339Z,100.00
2018-12-09T16:06:52.098Z,100.00
2018-12-09T16:09:20.771Z,100.00
2018-12-09T16:11:50.070Z,100.00
2018-12-09T16:14:19.582Z,100.00
2018-12-09T16:16:49.804Z,99.96
2018-12-09T16:19:19.185Z,99.83
2018-12-09T16:21:47.756Z,99.71
2018-12-09T16:24:16.401Z,100.00
2018-12-09T16:26:45.588Z,99.70
2018-12-09T16:29:14.180Z,99.54
2018-12-09T16:31:42.645Z,98.06
2018-12-09T16:34:11.235Z,98.10
2018-12-09T16:36:39.735Z,96.31
2018-12-09T16:39:08.612Z,95.95
2018-12-09T16:41:37.271Z,94.28
2018-12-09T16:44:07.218Z,95.07
2018-12-09T16:46:35.754Z,93.38
2018-12-09T16:52:07.157Z,93.91
2018-12-09T16:54:35.764Z,94.02
2018-12-09T16:57:04.266Z,93.38
2018-12-09T16:59:32.861Z,92.93
2018-12-09T17:02:01.323Z,92.14
2018-12-09T17:04:31.072Z,92.12
2018-12-09T17:07:00.529Z,92.82
2018-12-09T17:09:29.211Z,92.85
2018-12-09T17:11:57.809Z,93.75
2018-12-09T17:14:26.301Z,93.24
2018-12-09T17:16:54.868Z,93.53
2018-12-09T17:19:23.702Z,93.31
2018-12-09T17:21:52.327Z,93.16
2018-12-09T17:24:20.853Z,93.24
2018-12-09T17:26:49.384Z,93.53
2018-12-09T17:29:17.931Z,93.22
2018-12-09T17:31:46.480Z,93.93
2018-12-09T17:34:15.061Z,94.11
2018-12-09T17:36:43.852Z,94.22
2018-12-09T17:39:12.395Z,94.00
2018-12-09T17:41:41.454Z,93.77
2018-12-09T17:44:10.072Z,93.37
2018-12-09T17:46:38.637Z,93.64
2018-12-09T17:49:07.385Z,93.84
2018-12-09T17:51:36.311Z,94.07
2018-12-09T17:54:04.834Z,93.21
2018-12-09T17:56:33.602Z,92.59
2018-12-09T17:59:02.088Z,92.69
2018-12-09T18:01:30.632Z,92.69
2018-12-09T18:04:00.657Z,92.78
2018-12-09T18:06:29.410Z,92.99
2018-12-09T18:08:57.952Z,92.64
2018-12-09T18:11:26.475Z,93.42
2018-12-09T18:13:54.972Z,92.99
2018-12-09T18:16:23.484Z,93.60
2018-12-09T18:18:52.153Z,93.35
2018-12-09T18:21:20.755Z,92.79
2018-12-09T18:23:49.293Z,92.03
2018-12-09T18:26:17.802Z,91.72
2018-12-09T18:28:46.263Z,91.03
2018-12-09T18:31:14.946Z,90.06
2018-12-09T18:33:43.719Z,90.40
2018-12-09T18:36:12.640Z,90.60
2018-12-09T18:38:41.172Z,90.39
2018-12-09T18:41:09.693Z,90.47
2018-12-09T18:43:38.184Z,89.49
2018-12-09T18:47:10.742Z,90.10
2018-12-09T18:49:40.129Z,91.29
2018-12-09T18:52:08.653Z,90.14
2018-12-09T18:54:37.355Z,88.67
2018-12-09T18:57:05.999Z,87.56
2018-12-09T18:59:35.050Z,88.17
2018-12-09T19:02:04.744Z,87.23
2018-12-09T19:04:33.280Z,87.76
2018-12-09T19:07:01.992Z,84.97
2018-12-09T19:09:30.552Z,85.43
2018-12-09T19:11:59.181Z,85.40
2018-12-09T19:14:27.872Z,85.01
2018-12-09T19:16:56.906Z,85.07
2018-12-09T19:19:25.488Z,85.23
2018-12-09T19:21:54.087Z,84.36
2018-12-09T19:24:23.004Z,84.50
2018-12-09T19:26:51.700Z,86.00
2018-12-09T19:29:20.476Z,85.70
2018-12-09T19:31:49.030Z,86.10
2018-12-09T19:34:18.829Z,86.60
2018-12-09T19:36:47.314Z,87.23
2018-12-09T19:39:16.084Z,87.97
2018-12-09T19:41:44.597Z,88.58
2018-12-09T19:44:13.133Z,88.96
2018-12-09T19:46:41.642Z,88.34
2018-12-09T19:49:10.123Z,87.47
2018-12-09T19:51:38.609Z,88.30
2018-12-09T19:54:07.297Z,87.99
2018-12-09T19:56:35.868Z,88.70
2018-12-09T19:59:04.489Z,88.54
2018-12-09T20:01:33.212Z,88.38
2018-12-09T20:04:01.928Z,87.64
2018-12-09T20:06:30.573Z,86.07
2018-12-09T20:08:59.111Z,85.94
2018-12-09T20:11:27.747Z,87.00
2018-12-09T20:13:56.244Z,87.03
2018-12-09T20:16:24.875Z,86.90
2018-12-09T20:18:53.500Z,86.88
2018-12-09T20:21:22.307Z,86.12
2018-12-09T20:23:50.934Z,85.18
2018-12-09T20:26:19.474Z,85.25
2018-12-09T20:28:48.123Z,85.67
2018-12-09T20:31:16.679Z,84.93
2018-12-09T20:33:45.299Z,84.82
2018-12-09T20:36:14.320Z,85.95
2018-12-09T20:38:43.083Z,86.19
2018-12-09T20:41:12.416Z,86.80
2018-12-09T20:43:40.996Z,86.83
2018-12-09T20:46:09.577Z,87.00
2018-12-09T20:48:38.705Z,87.41
2018-12-09T20:51:07.285Z,88.30
2018-12-09T20:53:37.031Z,89.11
2018-12-09T20:56:05.532Z,89.99
2018-12-09T20:58:34.444Z,90.09
2018-12-09T21:01:02.919Z,89.86
2018-12-09T21:03:31.474Z,89.88
2018-12-09T21:06:00.196Z,89.85
2018-12-09T21:08:28.729Z,88.95
2018-12-09T21:10:57.300Z,88.58
2018-12-09T21:13:25.808Z,89.42
2018-12-09T21:15:54.580Z,89.15
2018-12-09T21:18:23.278Z,89.38
2018-12-09T21:20:51.851Z,90.17
2018-12-09T21:23:20.368Z,89.73
2018-12-09T21:25:49.009Z,89.58
2018-12-09T21:28:17.530Z,90.27
2018-12-09T21:30:46.072Z,89.83
2018-12-09T21:33:14.683Z,89.11
2018-12-09T21:35:43.293Z,88.84
2018-12-09T21:38:11.849Z,88.07
2018-12-09T21:40:40.351Z,89.12
2018-12-09T21:43:08.871Z,89.11
2018-12-09T21:45:37.584Z,89.49
2018-12-09T21:48:06.195Z,88.85
2018-12-09T21:50:34.804Z,88.72
2018-12-09T21:53:03.306Z,87.97
2018-12-09T21:55:31.836Z,88.13
2018-12-09T21:58:00.468Z,89.15
2018-12-09T22:00:28.974Z,89.47
2018-12-09T22:02:57.564Z,89.12
2018-12-09T22:05:26.335Z,89.73
2018-12-09T22:07:54.839Z,89.42
2018-12-09T22:10:23.345Z,90.06
2018-12-09T22:12:52.045Z,89.70
2018-12-09T22:15:20.647Z,90.56
2018-12-09T22:17:49.217Z,89.82
2018-12-09T22:20:17.716Z,89.12
2018-12-09T22:22:46.442Z,89.26
2018-12-09T22:25:14.919Z,89.31
2018-12-09T22:27:43.419Z,89.53
2018-12-09T22:30:12.218Z,89.37
2018-12-09T22:32:40.812Z,90.26
2018-12-09T22:35:09.316Z,89.79
2018-12-09T22:37:37.896Z,89.41
2018-12-09T22:40:07.257Z,89.75
2018-12-09T22:42:35.808Z,89.54
2018-12-09T22:45:04.551Z,89.75
2018-12-09T22:47:33.111Z,89.94
2018-12-09T22:50:01.576Z,89.69
2018-12-09T22:52:30.262Z,90.14
2018-12-09T22:54:58.796Z,90.78
2018-12-09T22:57:27.268Z,91.10
2018-12-09T22:59:55.783Z,91.40
2018-12-09T23:02:29.636Z,91.19
2018-12-09T23:04:58.195Z,90.94
2018-12-09T23:07:31.939Z,91.27
2018-12-09T23:10:00.699Z,89.81
2018-12-09T23:12:29.187Z,89.13
2018-12-09T23:14:57.649Z,89.00
2018-12-09T23:17:26.348Z,89.23
2018-12-09T23:19:54.894Z,89.81
2018-12-09T23:22:23.415Z,90.45
2018-12-09T23:24:51.904Z,91.01
2018-12-09T23:27:20.396Z,91.19
2018-12-09T23:29:48.899Z,91.09
2018-12-09T23:32:17.451Z,91.42
2018-12-09T23:34:46.231Z,91.82
2018-12-09T23:37:14.713Z,92.01
2018-12-09T23:39:43.269Z,91.85
2018-12-09T23:42:11.767Z,92.55
2018-12-09T23:44:40.296Z,91.84
2018-12-09T23:47:08.856Z,91.65
2018-12-09T23:49:37.349Z,92.04
2018-12-09T23:52:06.022Z,92.64
2018-12-09T23:54:34.492Z,91.81
2018-12-09T23:57:03.046Z,92.12
2018-12-09T23:59:31.783Z,91.64
